createdAt,value
2023-03-17T00:01:10.851Z,-3.47
2023-03-17T00:03:40.742Z,-3.28
2023-03-17T00:06:16.196Z,-3.19
2023-03-17T00:08:43.651Z,-3.22
2023-03-17T00:11:13.758Z,-3.21
2023-03-17T00:13:41.749Z,-3.12
2023-03-17T00:16:16.978Z,-3.07
2023-03-17T00:18:44.721Z,-3.12
2023-03-17T00:21:16.755Z,-3.33
2023-03-17T00:23:51.740Z,-3.39
2023-03-17T00:26:19.652Z,-3.37
2023-03-17T00:28:46.711Z,-3.31
2023-03-17T00:31:21.255Z,-3.24
2023-03-17T00:33:49.516Z,-3.23
2023-03-17T00:36:21.493Z,-3.23
2023-03-17T00:38:48.682Z,-3.31
2023-03-17T00:41:15.221Z,-3.37
2023-03-17T00:43:42.037Z,-3.31
2023-03-17T00:46:35.619Z,-3.16
2023-03-17T00:49:03.631Z,-3.24
2023-03-17T00:51:30.180Z,-3.19
2023-03-17T00:53:57.107Z,-3.37
2023-03-17T00:56:23.769Z,-3.51
2023-03-17T00:58:50.517Z,-3.51
2023-03-17T01:01:18.468Z,-3.52
2023-03-17T01:03:45.856Z,-3.49
2023-03-17T01:06:14.777Z,-3.58
2023-03-17T01:08:42.221Z,-3.56
2023-03-17T01:11:21.571Z,-3.48
2023-03-17T01:13:48.354Z,-3.57
2023-03-17T01:16:15.749Z,-3.53
2023-03-17T01:18:43.550Z,-3.54
2023-03-17T01:21:10.276Z,-3.59
2023-03-17T01:23:37.445Z,-3.61
2023-03-17T01:26:04.763Z,-3.47
2023-03-17T01:28:31.336Z,-3.58
2023-03-17T01:30:57.888Z,-3.60
2023-03-17T01:33:25.585Z,-3.67
2023-03-17T01:35:52.486Z,-3.66
2023-03-17T01:38:19.169Z,-3.60
2023-03-17T01:40:49.824Z,-3.50
2023-03-17T01:43:29.475Z,-3.50
2023-03-17T01:46:17.523Z,-3.43
2023-03-17T01:49:05.860Z,-3.39
2023-03-17T01:52:14.381Z,-3.49
2023-03-17T01:54:56.721Z,-3.71
2023-03-17T01:57:29.956Z,-3.77
2023-03-17T02:00:01.910Z,-3.77
2023-03-17T02:02:32.835Z,-3.87
2023-03-17T02:05:00.009Z,-3.90
2023-03-17T02:07:27.632Z,-3.95
2023-03-17T02:09:56.090Z,-3.86
2023-03-17T02:12:24.727Z,-3.79
2023-03-17T02:14:52.822Z,-3.76
2023-03-17T02:17:22.146Z,-3.75
2023-03-17T02:19:49.236Z,-3.63
2023-03-17T02:22:17.802Z,-3.61
2023-03-17T02:24:55.792Z,-3.52
2023-03-17T02:27:31.148Z,-3.47
2023-03-17T02:29:58.227Z,-3.70
2023-03-17T02:32:24.819Z,-3.72
2023-03-17T02:34:51.408Z,-3.93
2023-03-17T02:37:20.154Z,-4.09
2023-03-17T02:39:46.917Z,-4.14
2023-03-17T02:42:14.597Z,-4.17
2023-03-17T02:44:41.239Z,-4.07
2023-03-17T02:47:08.627Z,-3.86
2023-03-17T02:49:37.840Z,-3.90
2023-03-17T02:52:05.632Z,-4.00
2023-03-17T02:54:32.256Z,-4.14
2023-03-17T02:56:59.901Z,-4.25
2023-03-17T02:59:27.154Z,-4.28
2023-03-17T03:01:53.959Z,-4.19
2023-03-17T03:04:20.630Z,-4.09
2023-03-17T03:06:47.803Z,-4.01
2023-03-17T03:09:15.227Z,-3.95
2023-03-17T03:11:42.690Z,-4.03
2023-03-17T03:14:09.866Z,-4.16
2023-03-17T03:16:37.366Z,-4.25
2023-03-17T03:19:04.479Z,-4.29
2023-03-17T03:21:31.640Z,-4.31
2023-03-17T03:23:58.185Z,-4.35
2023-03-17T03:26:24.885Z,-4.43
2023-03-17T03:28:51.423Z,-4.52
2023-03-17T03:31:18.020Z,-4.55
2023-03-17T03:33:45.171Z,-4.54
2023-03-17T03:36:12.079Z,-4.57
2023-03-17T03:38:38.658Z,-4.60
2023-03-17T03:41:06.402Z,-4.64
2023-03-17T03:43:33.080Z,-4.62
2023-03-17T03:45:59.831Z,-4.67
2023-03-17T03:48:26.792Z,-4.66
2023-03-17T03:51:01.564Z,-4.66
2023-03-17T03:53:29.102Z,-4.67
2023-03-17T03:55:56.494Z,-4.63
2023-03-17T03:58:23.152Z,-4.58
2023-03-17T04:00:49.869Z,-4.60
2023-03-17T04:03:17.056Z,-4.60
2023-03-17T04:05:43.672Z,-4.58
2023-03-17T04:08:11.412Z,-4.62
2023-03-17T04:10:38.079Z,-4.67
2023-03-17T04:13:04.653Z,-4.63
2023-03-17T04:15:31.275Z,-4.59
2023-03-17T04:17:57.960Z,-4.59
2023-03-17T04:20:24.522Z,-4.62
2023-03-17T04:22:51.487Z,-4.55
2023-03-17T04:25:18.153Z,-4.47
2023-03-17T04:27:44.805Z,-4.56
2023-03-17T04:30:17.131Z,-4.61
2023-03-17T04:32:44.830Z,-4.62
2023-03-17T04:35:17.678Z,-4.58
2023-03-17T04:37:44.798Z,-4.53
2023-03-17T04:40:13.775Z,-4.61
2023-03-17T04:42:40.740Z,-4.66
2023-03-17T04:45:11.323Z,-4.70
2023-03-17T04:47:38.219Z,-4.62
2023-03-17T04:50:05.881Z,-4.63
2023-03-17T04:52:32.432Z,-4.57
2023-03-17T04:54:58.954Z,-4.55
2023-03-17T04:57:25.538Z,-4.60
2023-03-17T04:59:52.519Z,-4.63
2023-03-17T05:02:19.307Z,-4.65
2023-03-17T05:04:46.755Z,-4.79
2023-03-17T05:07:13.924Z,-4.87
2023-03-17T05:09:40.899Z,-4.86
2023-03-17T05:12:08.731Z,-4.68
2023-03-17T05:14:35.608Z,-4.58
2023-03-17T05:17:02.365Z,-4.59
2023-03-17T05:19:28.890Z,-4.68
2023-03-17T05:21:55.471Z,-4.61
2023-03-17T05:24:22.068Z,-4.54
2023-03-17T05:26:48.748Z,-4.58
2023-03-17T05:29:16.100Z,-4.68
2023-03-17T05:31:43.315Z,-4.71
2023-03-17T05:34:09.927Z,-4.67
2023-03-17T05:36:36.939Z,-4.71
2023-03-17T05:39:04.127Z,-4.72
2023-03-17T05:41:30.695Z,-4.64
2023-03-17T05:43:57.303Z,-4.62
2023-03-17T05:46:23.877Z,-4.64
2023-03-17T05:48:50.489Z,-4.47
2023-03-17T05:51:17.018Z,-4.36
2023-03-17T05:53:43.886Z,-4.37
2023-03-17T05:56:10.508Z,-4.32
2023-03-17T05:58:37.092Z,-4.23
2023-03-17T06:01:03.802Z,-4.14
2023-03-17T06:03:30.631Z,-4.04
2023-03-17T06:05:57.431Z,-3.93
2023-03-17T06:08:24.116Z,-3.88
2023-03-17T06:10:50.679Z,-3.79
2023-03-17T06:13:17.220Z,-3.71
2023-03-17T06:15:44.494Z,-3.66
2023-03-17T06:18:11.076Z,-3.55
2023-03-17T06:20:37.748Z,-3.48
2023-03-17T06:23:05.776Z,-3.34
2023-03-17T06:25:34.472Z,-3.11
2023-03-17T06:28:03.887Z,-2.97
2023-03-17T06:30:32.949Z,-2.91
2023-03-17T06:33:00.294Z,-2.97
2023-03-17T06:35:27.643Z,-2.92
2023-03-17T06:37:54.905Z,-2.73
2023-03-17T06:40:21.560Z,-2.60
2023-03-17T06:42:48.280Z,-2.49
2023-03-17T06:45:15.452Z,-2.17
2023-03-17T06:47:42.125Z,-1.78
2023-03-17T06:50:09.861Z,-1.37
2023-03-17T06:52:37.267Z,-1.06
2023-03-17T06:55:04.481Z,-0.81
2023-03-17T06:57:31.865Z,-0.53
2023-03-17T06:59:58.482Z,-0.35
2023-03-17T07:02:25.140Z,-0.02
2023-03-17T07:04:52.109Z,0.18
2023-03-17T07:07:20.309Z,0.41
2023-03-17T07:09:47.879Z,0.65
2023-03-17T07:12:15.023Z,0.87
2023-03-17T07:14:41.827Z,1.02
2023-03-17T07:17:12.954Z,1.24
2023-03-17T07:19:40.708Z,1.40
2023-03-17T07:22:08.153Z,1.59
2023-03-17T07:24:34.806Z,1.84
2023-03-17T07:27:01.490Z,2.04
2023-03-17T07:29:29.335Z,2.22
2023-03-17T07:31:56.080Z,2.41
2023-03-17T07:34:23.227Z,2.59
2023-03-17T07:36:49.783Z,2.66
2023-03-17T07:39:16.680Z,2.79
2023-03-17T07:41:44.297Z,2.89
2023-03-17T07:44:11.505Z,3.02
2023-03-17T07:46:39.024Z,3.11
2023-03-17T07:49:06.284Z,3.24
2023-03-17T07:51:33.055Z,3.45
2023-03-17T07:54:03.989Z,3.59
2023-03-17T07:56:32.369Z,3.64
2023-03-17T07:58:59.981Z,3.78
2023-03-17T08:01:27.925Z,3.96
2023-03-17T08:03:56.616Z,4.21
2023-03-17T08:06:25.493Z,4.95
2023-03-17T08:08:55.167Z,5.49
2023-03-17T08:11:22.078Z,5.66
2023-03-17T08:13:49.909Z,5.95
2023-03-17T08:16:16.876Z,6.19
2023-03-17T08:18:43.546Z,6.45
2023-03-17T08:21:10.824Z,6.64
2023-03-17T08:23:37.549Z,6.78
2023-03-17T08:26:05.059Z,6.74
2023-03-17T08:28:32.576Z,6.91
2023-03-17T08:31:12.726Z,7.05
2023-03-17T08:33:43.007Z,6.96
2023-03-17T08:36:11.423Z,6.86
2023-03-17T08:38:40.147Z,6.73
2023-03-17T08:41:09.568Z,6.71
2023-03-17T08:43:37.412Z,6.70
2023-03-17T08:48:48.331Z,6.55
2023-03-17T08:51:18.428Z,6.60
2023-03-17T09:01:45.561Z,6.77
2023-03-17T09:04:12.212Z,6.94
2023-03-17T09:06:44.049Z,6.86
2023-03-17T09:09:16.910Z,7.02
2023-03-17T09:11:46.605Z,7.10
2023-03-17T09:14:13.187Z,6.91
2023-03-17T09:16:40.171Z,6.89
2023-03-17T09:19:06.788Z,7.09
2023-03-17T09:21:33.465Z,7.14
2023-03-17T09:24:02.437Z,7.25
2023-03-17T09:26:29.399Z,7.37
2023-03-17T09:28:56.258Z,7.43
2023-03-17T09:31:22.962Z,7.49
2023-03-17T09:33:49.531Z,7.78
2023-03-17T09:36:16.105Z,7.69
2023-03-17T09:38:42.721Z,7.63
2023-03-17T09:41:21.236Z,7.54
2023-03-17T09:43:54.510Z,7.51
2023-03-17T09:46:40.093Z,7.53
2023-03-17T09:49:15.565Z,7.68
2023-03-17T09:51:45.204Z,7.81
2023-03-17T09:54:21.809Z,7.59
2023-03-17T09:56:54.566Z,7.64
2023-03-17T09:59:42.033Z,7.67
2023-03-17T10:02:28.720Z,7.69
2023-03-17T10:04:56.267Z,7.76
2023-03-17T10:07:41.074Z,7.70
2023-03-17T10:10:36.716Z,7.88
2023-03-17T10:13:27.566Z,7.66
2023-03-17T10:16:03.537Z,7.46
2023-03-17T10:18:44.544Z,7.69
2023-03-17T10:21:16.337Z,7.89
2023-03-17T10:23:43.394Z,7.99
2023-03-17T10:26:33.710Z,7.86
2023-03-17T10:29:04.254Z,7.72
2023-03-17T10:31:33.379Z,7.67
2023-03-17T10:34:13.373Z,7.43
2023-03-17T10:36:44.515Z,7.35
2023-03-17T10:39:14.887Z,7.41
2023-03-17T10:41:52.596Z,7.47
2023-03-17T10:44:40.600Z,7.38
2023-03-17T10:47:39.884Z,7.49
2023-03-17T10:50:32.064Z,7.69
2023-03-17T10:53:04.723Z,7.73
2023-03-17T10:55:47.594Z,7.53
2023-03-17T10:58:17.971Z,7.61
2023-03-17T11:00:56.885Z,7.74
2023-03-17T11:03:27.627Z,8.04
2023-03-17T11:05:57.603Z,8.00
2023-03-17T11:10:57.045Z,7.99
2023-03-17T11:13:30.238Z,8.04
2023-03-17T11:16:34.747Z,7.98
2023-03-17T11:19:02.438Z,8.08
2023-03-17T11:22:06.624Z,8.25
2023-03-17T11:24:41.494Z,8.59
2023-03-17T11:27:47.109Z,8.55
2023-03-17T11:30:25.583Z,8.57
2023-03-17T11:33:23.276Z,8.84
2023-03-17T11:36:19.124Z,8.81
2023-03-17T11:38:52.436Z,8.83
2023-03-17T11:41:41.818Z,9.13
2023-03-17T11:44:11.290Z,9.36
2023-03-17T11:46:50.724Z,9.24
2023-03-17T11:49:24.675Z,9.23
2023-03-17T11:52:39.397Z,9.28
2023-03-17T11:55:20.683Z,9.27
2023-03-17T11:57:57.485Z,9.17
2023-03-17T12:00:31.887Z,9.39
2023-03-17T12:03:31.205Z,9.19
2023-03-17T12:06:05.497Z,9.25
2023-03-17T12:08:37.834Z,9.15
2023-03-17T12:11:08.552Z,8.98
2023-03-17T12:13:41.739Z,9.11
2023-03-17T12:16:14.424Z,8.99
2023-03-17T12:18:46.289Z,9.08
2023-03-17T12:21:21.427Z,8.95
2023-03-17T12:23:58.752Z,9.08
2023-03-17T12:26:39.081Z,9.26
2023-03-17T12:29:13.564Z,9.23
2023-03-17T12:31:55.767Z,9.38
2023-03-17T12:34:41.940Z,9.25
2023-03-17T12:37:09.782Z,9.32
2023-03-17T12:39:37.633Z,9.37
2023-03-17T12:42:47.167Z,9.68
2023-03-17T12:45:35.421Z,9.63
2023-03-17T12:48:27.356Z,9.37
2023-03-17T12:51:26.223Z,9.27
2023-03-17T12:53:53.474Z,9.28
2023-03-17T12:56:30.829Z,9.39
2023-03-17T12:59:04.181Z,9.31
2023-03-17T13:01:46.044Z,9.30
2023-03-17T13:04:12.613Z,9.32
2023-03-17T13:06:43.042Z,9.44
2023-03-17T13:09:36.494Z,9.42
2023-03-17T13:12:05.724Z,9.33
2023-03-17T13:14:47.795Z,9.49
2023-03-17T13:17:17.648Z,9.53
2023-03-17T13:19:56.128Z,9.55
2023-03-17T13:22:22.652Z,9.63
2023-03-17T13:24:53.464Z,9.68
2023-03-17T13:27:32.034Z,9.61
2023-03-17T13:30:00.093Z,9.53
2023-03-17T13:32:26.749Z,9.81
2023-03-17T13:35:17.119Z,9.86
2023-03-17T13:38:17.937Z,9.71
2023-03-17T13:41:13.768Z,9.95
2023-03-17T13:43:43.630Z,9.74
2023-03-17T13:46:25.515Z,9.58
2023-03-17T13:48:54.910Z,9.38
2023-03-17T13:51:27.497Z,9.27
2023-03-17T13:53:57.414Z,9.31
2023-03-17T13:56:47.202Z,9.48
2023-03-17T13:59:39.895Z,9.41
2023-03-17T14:02:21.566Z,9.34
2023-03-17T14:05:04.261Z,8.96
2023-03-17T14:07:43.095Z,8.68
2023-03-17T14:10:18.606Z,8.64
2023-03-17T14:13:03.227Z,8.59
2023-03-17T14:15:40.717Z,8.55
2023-03-17T14:18:17.048Z,8.63
2023-03-17T14:20:58.454Z,8.67
2023-03-17T14:23:26.140Z,8.71
2023-03-17T14:25:56.662Z,8.75
2023-03-17T14:28:28.314Z,8.68
2023-03-17T14:31:00.426Z,8.75
2023-03-17T14:33:29.811Z,8.79
2023-03-17T14:35:59.535Z,8.73
2023-03-17T14:38:34.794Z,8.62
2023-03-17T14:41:04.551Z,8.46
2023-03-17T14:43:32.907Z,8.62
2023-03-17T14:46:05.819Z,8.55
2023-03-17T14:48:41.635Z,8.64
2023-03-17T14:51:43.940Z,8.80
2023-03-17T14:54:14.559Z,8.73
2023-03-17T14:56:43.840Z,8.59
2023-03-17T14:59:31.050Z,8.40
2023-03-17T15:02:04.213Z,8.51
2023-03-17T15:04:33.803Z,8.69
2023-03-17T15:07:07.589Z,8.58
2023-03-17T15:09:34.249Z,8.45
2023-03-17T15:12:27.496Z,8.21
2023-03-17T15:14:58.479Z,8.20
2023-03-17T15:17:32.872Z,8.12
2023-03-17T15:20:07.591Z,8.01
2023-03-17T15:22:37.069Z,8.13
2023-03-17T15:25:16.583Z,8.17
2023-03-17T15:27:44.345Z,7.97
2023-03-17T15:30:11.840Z,7.98
2023-03-17T15:32:39.729Z,7.92
2023-03-17T15:35:08.511Z,7.73
2023-03-17T15:37:35.510Z,7.71
2023-03-17T15:40:03.461Z,7.55
2023-03-17T15:42:34.668Z,7.43
2023-03-17T15:45:02.004Z,7.28
2023-03-17T15:47:31.455Z,7.16
2023-03-17T15:50:01.950Z,6.96
2023-03-17T15:52:28.949Z,6.76
2023-03-17T15:54:58.534Z,6.65
2023-03-17T15:57:27.156Z,6.51
2023-03-17T15:59:53.927Z,6.49
2023-03-17T16:02:27.980Z,6.34
2023-03-17T16:04:55.157Z,6.19
2023-03-17T16:07:22.482Z,6.04
2023-03-17T16:09:49.699Z,5.89
2023-03-17T16:12:16.324Z,5.75
2023-03-17T16:14:43.284Z,5.69
2023-03-17T16:17:29.997Z,5.60
2023-03-17T16:19:57.392Z,5.45
2023-03-17T16:22:43.633Z,5.32
2023-03-17T16:25:21.490Z,5.30
2023-03-17T16:27:49.075Z,5.29
2023-03-17T16:30:21.402Z,5.21
2023-03-17T16:32:48.961Z,5.16
2023-03-17T16:35:25.958Z,5.14
2023-03-17T16:37:54.277Z,5.01
2023-03-17T16:40:33.343Z,4.96
2023-03-17T16:43:00.366Z,4.88
2023-03-17T16:45:30.033Z,4.85
2023-03-17T16:47:57.285Z,4.80
2023-03-17T16:50:26.610Z,4.72
2023-03-17T16:52:54.112Z,4.68
2023-03-17T16:55:22.085Z,4.64
2023-03-17T16:57:51.737Z,4.59
2023-03-17T17:00:22.224Z,4.62
2023-03-17T17:02:49.839Z,4.56
2023-03-17T17:05:22.223Z,4.39
2023-03-17T17:07:50.840Z,4.43
2023-03-17T17:10:19.859Z,4.45
2023-03-17T17:12:47.369Z,4.26
2023-03-17T17:15:19.972Z,4.10
2023-03-17T17:17:53.940Z,4.02
2023-03-17T17:20:22.053Z,3.96
2023-03-17T17:22:49.318Z,3.92
2023-03-17T17:25:17.144Z,3.87
2023-03-17T17:27:46.041Z,3.74
2023-03-17T17:30:16.690Z,3.67
2023-03-17T17:32:44.287Z,3.64
2023-03-17T17:35:11.867Z,3.61
2023-03-17T17:37:38.960Z,3.51
2023-03-17T17:40:07.737Z,3.44
2023-03-17T17:42:35.523Z,3.31
2023-03-17T17:45:02.261Z,3.20
2023-03-17T17:47:32.192Z,3.15
2023-03-17T17:49:59.446Z,2.96
2023-03-17T17:52:26.103Z,2.74
2023-03-17T17:54:52.721Z,2.62
2023-03-17T17:57:19.488Z,2.55
2023-03-17T17:59:46.140Z,2.43
2023-03-17T18:02:12.906Z,2.28
2023-03-17T18:04:39.564Z,2.23
2023-03-17T18:07:06.186Z,2.18
2023-03-17T18:09:32.907Z,2.10
2023-03-17T18:11:59.605Z,2.08
2023-03-17T18:14:26.582Z,2.07
2023-03-17T18:16:53.473Z,1.94
2023-03-17T18:19:20.299Z,1.85
2023-03-17T18:21:47.094Z,1.81
2023-03-17T18:24:14.910Z,1.71
2023-03-17T18:26:41.948Z,1.69
2023-03-17T18:29:09.484Z,1.66
2023-03-17T18:31:43.809Z,1.62
2023-03-17T18:34:20.155Z,1.63
2023-03-17T18:36:48.014Z,1.56
2023-03-17T18:39:15.897Z,1.47
2023-03-17T18:41:43.746Z,1.38
2023-03-17T18:44:10.440Z,1.27
2023-03-17T18:46:38.148Z,1.23
2023-03-17T18:49:05.840Z,1.19
2023-03-17T18:51:33.081Z,1.12
2023-03-17T18:54:00.040Z,1.06
2023-03-17T18:56:29.245Z,1.08
2023-03-17T18:58:56.986Z,1.07
2023-03-17T19:01:24.205Z,0.97
2023-03-17T19:03:51.122Z,0.89
2023-03-17T19:06:21.103Z,0.87
2023-03-17T19:08:48.313Z,0.84
2023-03-17T19:11:18.424Z,0.78
2023-03-17T19:13:45.617Z,0.74
2023-03-17T19:16:12.449Z,0.67
2023-03-17T19:18:41.937Z,0.60
2023-03-17T19:21:10.314Z,0.53
2023-03-17T19:23:38.278Z,0.51
2023-03-17T19:26:05.916Z,0.45
2023-03-17T19:28:33.261Z,0.40
2023-03-17T19:30:59.969Z,0.39
2023-03-17T19:33:26.778Z,0.33
2023-03-17T19:35:57.043Z,0.21
2023-03-17T19:38:24.685Z,0.17
2023-03-17T19:40:52.971Z,0.13
2023-03-17T19:43:36.863Z,0.15
2023-03-17T19:46:06.551Z,0.13
2023-03-17T19:48:33.576Z,0.12
2023-03-17T19:51:01.500Z,0.09
2023-03-17T19:53:28.086Z,0.01
2023-03-17T19:55:56.784Z,-0.05
2023-03-17T19:58:23.449Z,-0.08
2023-03-17T20:00:50.052Z,-0.13
2023-03-17T20:03:16.673Z,-0.19
2023-03-17T20:05:45.773Z,-0.18
2023-03-17T20:08:12.344Z,-0.22
2023-03-17T20:10:39.080Z,-0.28
2023-03-17T20:13:06.496Z,-0.26
2023-03-17T20:15:33.744Z,-0.29
2023-03-17T20:18:00.790Z,-0.30
2023-03-17T20:20:27.524Z,-0.36
2023-03-17T20:22:54.212Z,-0.38
2023-03-17T20:25:21.872Z,-0.41
2023-03-17T20:27:49.487Z,-0.47
2023-03-17T20:30:16.236Z,-0.51
2023-03-17T20:32:44.250Z,-0.53
2023-03-17T20:35:11.198Z,-0.54
2023-03-17T20:37:38.802Z,-0.55
2023-03-17T20:40:08.423Z,-0.54
2023-03-17T20:42:35.329Z,-0.56
2023-03-17T20:45:03.577Z,-0.58
2023-03-17T20:47:30.819Z,-0.60
2023-03-17T20:49:58.949Z,-0.61
2023-03-17T20:52:29.509Z,-0.62
2023-03-17T20:54:56.596Z,-0.63
2023-03-17T20:57:23.173Z,-0.64
2023-03-17T20:59:51.330Z,-0.67
2023-03-17T21:02:19.014Z,-0.70
2023-03-17T21:04:48.146Z,-0.67
2023-03-17T21:07:21.490Z,-0.62
2023-03-17T21:09:48.564Z,-0.63
2023-03-17T21:12:18.155Z,-0.63
2023-03-17T21:14:46.596Z,-0.68
2023-03-17T21:17:13.528Z,-0.65
2023-03-17T21:19:40.616Z,-0.71
2023-03-17T21:22:07.233Z,-0.74
2023-03-17T21:24:36.354Z,-0.74
2023-03-17T21:27:05.881Z,-0.70
2023-03-17T21:29:33.943Z,-0.66
2023-03-17T21:32:02.043Z,-0.62
2023-03-17T21:34:30.735Z,-0.57
2023-03-17T21:36:58.519Z,-0.59
2023-03-17T21:39:29.271Z,-0.63
2023-03-17T21:41:56.732Z,-0.58
2023-03-17T21:44:23.518Z,-0.54
2023-03-17T21:46:50.883Z,-0.55
2023-03-17T21:49:18.887Z,-0.54
2023-03-17T21:51:46.804Z,-0.51
2023-03-17T21:54:14.358Z,-0.47
2023-03-17T21:56:42.704Z,-0.44
2023-03-17T21:59:14.024Z,-0.42
2023-03-17T22:01:41.817Z,-0.48
2023-03-17T22:04:09.226Z,-0.51
2023-03-17T22:06:36.099Z,-0.51
2023-03-17T22:09:04.422Z,-0.50
2023-03-17T22:11:31.405Z,-0.48
2023-03-17T22:13:58.671Z,-0.45
2023-03-17T22:16:25.470Z,-0.42
2023-03-17T22:18:52.735Z,-0.40
2023-03-17T22:21:20.499Z,-0.36
2023-03-17T22:23:47.876Z,-0.37
2023-03-17T22:26:16.857Z,-0.38
2023-03-17T22:28:44.775Z,-0.39
2023-03-17T22:31:17.157Z,-0.39
2023-03-17T22:33:44.172Z,-0.47
2023-03-17T22:36:11.738Z,-0.46
2023-03-17T22:38:38.398Z,-0.41
2023-03-17T22:41:08.847Z,-0.39
2023-03-17T22:43:36.779Z,-0.43
2023-03-17T22:46:03.759Z,-0.49
2023-03-17T22:48:32.690Z,-0.50
2023-03-17T22:51:03.475Z,-0.51
2023-03-17T22:53:31.570Z,-0.53
2023-03-17T22:55:58.464Z,-0.55
2023-03-17T22:58:26.240Z,-0.58
2023-03-17T23:00:53.882Z,-0.58
2023-03-17T23:03:21.162Z,-0.53
2023-03-17T23:05:49.865Z,-0.52
2023-03-17T23:08:17.464Z,-0.55
2023-03-17T23:10:44.051Z,-0.56
2023-03-17T23:13:11.452Z,-0.62
2023-03-17T23:15:38.156Z,-0.68
2023-03-17T23:18:05.323Z,-0.79
2023-03-17T23:20:33.182Z,-0.81
2023-03-17T23:23:00.114Z,-0.88
2023-03-17T23:25:26.782Z,-0.91
2023-03-17T23:27:53.373Z,-0.93
2023-03-17T23:30:21.254Z,-0.92
2023-03-17T23:32:49.270Z,-0.96
2023-03-17T23:35:16.496Z,-0.99
2023-03-17T23:37:43.254Z,-1.03
2023-03-17T23:40:13.724Z,-1.06
2023-03-17T23:42:40.463Z,-1.10
2023-03-17T23:45:08.642Z,-1.10
2023-03-17T23:47:35.213Z,-1.13
2023-03-17T23:50:02.277Z,-1.21
2023-03-17T23:52:28.855Z,-1.28
2023-03-17T23:54:55.437Z,-1.34
2023-03-17T23:57:22.898Z,-1.39
2023-03-17T23:59:49.801Z,-1.48
